Time;durP1;ratioP1;P1;durP2;ratioP2;P2;SDS_P1;SDS_P2;PMS_P1;PMS_P2;Temp;Humidity;BMP_temperature;BMP_pressure;BME280_temperature;BME280_humidity;BME280_pressure;Samples;Min_cycle;Max_cycle;Signal;HPM_P1;HPM_P2
2022/01/11 00:01:32;;;;;;;105.93;23.02;;;2.40;99.90;;;;;;5117415;27;20047;-76
2022/01/11 00:03:57;;;;;;;76.60;19.60;;;2.10;99.90;;;;;;5100502;27;20403;-76
2022/01/11 00:06:34;;;;;;;55.78;19.85;;;2.10;99.90;;;;;;5100602;27;20039;-76
2022/01/11 00:09:06;;;;;;;107.82;25.08;;;2.90;99.90;;;;;;5113306;28;20063;-74
2022/01/11 00:11:32;;;;;;;51.17;18.65;;;2.10;99.90;;;;;;5081087;28;20047;-73
2022/01/11 00:13:58;;;;;;;73.22;20.20;;;2.00;99.90;;;;;;5114752;28;20057;-73
2022/01/11 00:16:23;;;;;;;92.28;20.20;;;1.90;99.90;;;;;;5096413;28;20047;-76
2022/01/11 00:18:49;;;;;;;79.93;20.33;;;2.10;99.90;;;;;;5096627;28;20119;-74
2022/01/11 00:21:15;;;;;;;88.63;20.70;;;1.90;99.90;;;;;;5096791;28;20468;-73
2022/01/11 00:26:07;;;;;;;81.15;19.92;;;2.00;99.90;;;;;;5113559;28;20070;-77
2022/01/11 00:28:33;;;;;;;72.53;18.42;;;1.80;99.90;;;;;;5096598;28;20056;-76
2022/01/11 00:31:00;;;;;;;91.25;19.48;;;2.50;99.90;;;;;;5096699;28;20051;-76
2022/01/11 00:33:47;;;;;;;45.17;15.95;;;2.20;99.90;;;;;;5096998;28;20047;-76
2022/01/11 00:36:12;;;;;;;56.35;17.48;;;1.70;99.90;;;;;;5098922;28;20101;-76
2022/01/11 00:38:40;;;;;;;72.88;16.48;;;1.90;99.90;;;;;;5113878;28;20527;-74
2022/01/11 00:41:08;;;;;;;53.13;16.45;;;2.40;99.90;;;;;;5114703;28;20040;-75
2022/01/11 00:43:36;;;;;;;73.03;17.48;;;2.40;99.90;;;;;;5113994;28;20043;-74
2022/01/11 00:46:03;;;;;;;69.93;18.17;;;1.70;99.90;;;;;;5113092;28;20054;-74
2022/01/11 00:48:28;;;;;;;76.97;18.58;;;1.80;99.90;;;;;;5114040;28;20130;-74
2022/01/11 00:50:55;;;;;;;53.35;15.70;;;2.00;99.90;;;;;;5113142;28;20123;-75
2022/01/11 00:53:22;;;;;;;50.55;16.38;;;2.00;99.90;;;;;;5096041;28;20040;-75
2022/01/11 00:55:50;;;;;;;60.38;16.45;;;1.80;99.90;;;;;;5097043;28;20108;-74
2022/01/11 00:58:18;;;;;;;42.00;15.15;;;2.30;99.90;;;;;;5079457;28;20089;-75
2022/01/11 01:00:44;;;;;;;44.00;15.63;;;2.30;99.90;;;;;;5114739;28;20058;-74
2022/01/11 01:03:10;;;;;;;64.90;16.40;;;2.10;99.90;;;;;;5113032;28;20048;-75
2022/01/11 01:05:35;;;;;;;73.50;17.38;;;1.70;99.90;;;;;;5062399;28;20055;-75
2022/01/11 01:08:02;;;;;;;55.03;15.70;;;3.00;99.90;;;;;;5095663;28;20047;-74
2022/01/11 01:10:40;;;;;;;69.70;16.45;;;1.60;99.90;;;;;;5112659;28;20062;-75
2022/01/11 01:13:09;;;;;;;73.25;17.80;;;1.90;99.90;;;;;;5081434;28;20047;-74
2022/01/11 01:15:35;;;;;;;62.88;16.10;;;1.90;99.90;;;;;;5112963;28;20055;-75
2022/01/11 01:18:02;;;;;;;51.55;15.93;;;1.40;99.90;;;;;;5112794;28;20046;-75
2022/01/11 01:20:27;;;;;;;66.47;15.10;;;2.40;99.90;;;;;;5095936;28;20045;-75
2022/01/11 01:22:53;;;;;;;56.80;15.63;;;2.70;99.90;;;;;;5079190;28;20047;-75
2022/01/11 01:25:21;;;;;;;76.57;15.80;;;1.50;99.90;;;;;;5113479;28;20070;-75
2022/01/11 01:27:52;;;;;;;36.25;14.48;;;1.60;99.90;;;;;;5096038;28;20047;-74
2022/01/11 01:30:18;;;;;;;42.15;14.85;;;1.90;99.90;;;;;;5117329;28;20042;-75
2022/01/11 01:32:45;;;;;;;48.65;15.63;;;1.30;99.90;;;;;;5118159;28;20043;-75
2022/01/11 01:35:12;;;;;;;67.57;16.20;;;1.50;99.90;;;;;;5100776;28;20425;-75
2022/01/11 01:37:38;;;;;;;51.25;15.40;;;2.30;99.90;;;;;;5099314;28;20491;-75
2022/01/11 01:40:05;;;;;;;57.88;14.98;;;1.50;99.90;;;;;;5117700;28;20127;-74
2022/01/11 01:42:32;;;;;;;60.42;15.93;;;1.40;99.90;;;;;;5099662;28;20052;-75
2022/01/11 01:45:01;;;;;;;50.33;14.50;;;1.40;99.90;;;;;;5100734;28;20043;-74
2022/01/11 01:47:27;;;;;;;47.13;15.00;;;2.60;99.90;;;;;;5100067;28;20100;-75
2022/01/11 01:49:53;;;;;;;54.22;14.75;;;2.70;99.90;;;;;;5099150;28;20496;-75
2022/01/11 01:52:19;;;;;;;53.08;15.82;;;1.70;99.90;;;;;;5099710;28;20494;-75
2022/01/11 01:54:45;;;;;;;62.15;16.10;;;1.70;99.90;;;;;;5083227;28;20047;-75
2022/01/11 01:57:12;;;;;;;52.75;15.98;;;1.40;99.90;;;;;;5116558;28;20040;-75
2022/01/11 01:59:37;;;;;;;58.97;16.80;;;1.70;99.90;;;;;;5116370;28;20044;-75
2022/01/11 02:02:06;;;;;;;56.03;16.30;;;2.00;99.90;;;;;;5083462;28;20126;-75
2022/01/11 02:04:31;;;;;;;58.85;15.82;;;1.50;99.90;;;;;;5099825;28;20051;-74
2022/01/11 02:06:57;;;;;;;82.68;17.75;;;1.80;99.90;;;;;;5117409;28;20071;-75
2022/01/11 02:09:23;;;;;;;49.03;15.73;;;2.30;99.90;;;;;;5116003;28;20048;-74
2022/01/11 02:11:49;;;;;;;64.70;16.23;;;1.90;99.90;;;;;;5082194;28;20138;-74
2022/01/11 02:14:15;;;;;;;41.22;15.57;;;1.60;99.90;;;;;;5116943;28;20048;-75
2022/01/11 02:16:41;;;;;;;69.20;17.23;;;1.90;99.90;;;;;;5099088;28;20048;-75
2022/01/11 02:19:06;;;;;;;81.63;17.77;;;1.70;99.90;;;;;;5115903;28;20067;-74
2022/01/11 02:21:32;;;;;;;72.57;16.73;;;1.70;99.90;;;;;;5115960;28;20047;-74
2022/01/11 02:23:59;;;;;;;60.05;16.58;;;2.40;99.90;;;;;;5099373;28;20115;-74
2022/01/11 02:26:25;;;;;;;67.82;17.75;;;2.10;99.90;;;;;;5099348;28;20048;-74
2022/01/11 02:28:52;;;;;;;96.25;18.05;;;1.80;99.90;;;;;;5082290;28;20388;-74
2022/01/11 02:31:18;;;;;;;48.40;15.60;;;2.50;99.90;;;;;;5117469;28;20097;-74
2022/01/11 02:33:54;;;;;;;84.00;18.77;;;1.50;99.90;;;;;;5115958;28;20130;-74
2022/01/11 02:36:26;;;;;;;40.85;15.30;;;1.90;99.90;;;;;;5099230;28;20051;-74
2022/01/11 02:38:54;;;;;;;47.35;15.35;;;1.60;99.90;;;;;;5116499;28;20392;-74
2022/01/11 02:41:20;;;;;;;69.43;16.75;;;2.20;99.90;;;;;;5115478;28;20134;-74
2022/01/11 02:43:48;;;;;;;70.05;16.70;;;2.70;99.90;;;;;;5115792;28;20039;-74
2022/01/11 02:46:16;;;;;;;51.35;17.80;;;2.20;99.90;;;;;;5098658;28;20479;-75
2022/01/11 02:48:42;;;;;;;59.20;15.93;;;1.60;99.90;;;;;;5116692;28;20449;-75
2022/01/11 02:51:09;;;;;;;56.53;15.90;;;1.60;99.90;;;;;;5098604;28;20040;-74
2022/01/11 02:53:46;;;;;;;39.05;16.23;;;2.00;99.90;;;;;;5115298;28;20051;-75
2022/01/11 02:56:12;;;;;;;74.50;15.85;;;1.60;99.90;;;;;;5115597;28;20483;-74
2022/01/11 02:58:38;;;;;;;60.97;16.63;;;2.30;99.90;;;;;;5098353;28;20121;-75
2022/01/11 03:01:06;;;;;;;43.95;15.40;;;1.60;99.90;;;;;;5115458;28;20434;-74
2022/01/11 03:03:32;;;;;;;46.17;15.35;;;2.20;99.90;;;;;;5115929;28;20047;-75
2022/01/11 03:06:03;;;;;;;38.50;15.52;;;2.30;99.90;;;;;;5116385;28;20118;-74
2022/01/11 03:08:44;;;;;;;48.92;14.73;;;1.50;99.90;;;;;;5098980;28;20376;-74
2022/01/11 03:11:12;;;;;;;45.53;16.25;;;1.80;99.90;;;;;;5098560;28;20067;-75
2022/01/11 03:13:40;;;;;;;54.13;17.80;;;1.50;99.90;;;;;;5115148;28;20040;-75
2022/01/11 03:16:06;;;;;;;53.15;16.65;;;2.80;99.90;;;;;;5098820;28;20059;-75
2022/01/11 03:18:32;;;;;;;58.38;17.10;;;1.80;99.90;;;;;;5114464;28;20047;-75
2022/01/11 03:20:58;;;;;;;47.35;16.00;;;1.30;99.90;;;;;;5114879;28;20051;-75
2022/01/11 03:23:24;;;;;;;61.22;17.02;;;1.50;99.90;;;;;;5097886;28;20082;-75
2022/01/11 03:25:52;;;;;;;54.67;16.73;;;1.50;99.90;;;;;;5115272;28;20047;-75
2022/01/11 03:28:19;;;;;;;78.70;18.83;;;2.00;99.90;;;;;;5097732;28;20384;-75
2022/01/11 03:30:45;;;;;;;76.97;17.98;;;1.20;99.90;;;;;;5116396;28;20116;-75
2022/01/11 03:33:11;;;;;;;71.80;17.67;;;2.00;99.90;;;;;;5116591;28;20043;-75
2022/01/11 03:35:39;;;;;;;49.95;16.60;;;1.60;99.90;;;;;;5114588;28;20055;-75
2022/01/11 03:38:06;;;;;;;48.92;15.63;;;1.60;99.90;;;;;;5098287;28;20043;-75
2022/01/11 03:40:32;;;;;;;32.70;14.30;;;1.70;99.90;;;;;;5114410;28;20047;-74
2022/01/11 03:42:58;;;;;;;40.83;15.50;;;2.00;99.90;;;;;;5097869;28;20144;-75
2022/01/11 03:45:25;;;;;;;38.88;15.13;;;1.60;99.90;;;;;;5115425;28;20483;-75
2022/01/11 03:47:53;;;;;;;43.13;16.92;;;1.80;99.90;;;;;;5097159;28;20072;-75
2022/01/11 03:50:20;;;;;;;35.35;14.98;;;2.10;99.90;;;;;;5114381;28;20193;-74
2022/01/11 03:52:46;;;;;;;32.83;16.02;;;1.60;99.90;;;;;;5114362;28;20070;-74
2022/01/11 03:55:20;;;;;;;42.95;16.23;;;1.90;99.90;;;;;;5114390;28;20043;-75
2022/01/11 03:57:47;;;;;;;33.28;14.82;;;2.00;99.90;;;;;;5082131;28;20085;-75
2022/01/11 04:00:17;;;;;;;36.10;14.15;;;1.40;99.90;;;;;;5080427;28;20070;-74
2022/01/11 04:02:43;;;;;;;36.78;14.57;;;1.20;99.90;;;;;;5097126;28;20056;-74
2022/01/11 04:05:12;;;;;;;37.95;15.07;;;1.20;99.90;;;;;;5097346;28;20090;-74
2022/01/11 04:07:38;;;;;;;43.53;15.45;;;1.30;99.90;;;;;;5115921;27;20062;-74
2022/01/11 04:10:05;;;;;;;43.47;14.98;;;1.50;99.90;;;;;;5118338;27;20082;-74
2022/01/11 04:12:31;;;;;;;52.90;17.45;;;1.30;99.90;;;;;;5100465;27;20035;-74
2022/01/11 04:14:56;;;;;;;50.88;15.43;;;1.30;99.90;;;;;;5117377;27;20137;-74
2022/01/11 04:17:22;;;;;;;39.33;15.40;;;1.40;99.90;;;;;;5117126;27;20069;-75
2022/01/11 04:19:48;;;;;;;37.05;15.20;;;2.20;99.90;;;;;;5135662;27;20047;-74
2022/01/11 04:22:14;;;;;;;60.45;16.00;;;2.10;99.90;;;;;;5100098;27;20073;-74
2022/01/11 04:24:40;;;;;;;36.42;15.10;;;2.20;99.90;;;;;;5116930;27;20050;-74
2022/01/11 04:27:06;;;;;;;35.80;13.38;;;2.20;99.90;;;;;;5100188;27;20039;-74
2022/01/11 04:29:32;;;;;;;44.42;14.43;;;1.30;99.90;;;;;;5099900;27;20051;-74
2022/01/11 04:31:58;;;;;;;34.05;14.35;;;1.70;99.90;;;;;;5100382;27;20054;-74
2022/01/11 04:34:25;;;;;;;33.50;14.77;;;2.00;99.90;;;;;;5116924;27;20573;-74
2022/01/11 04:36:51;;;;;;;34.08;13.65;;;1.90;99.90;;;;;;5117257;27;20129;-75
2022/01/11 04:39:17;;;;;;;32.33;14.35;;;1.80;99.90;;;;;;5117465;27;20133;-75
2022/01/11 04:41:42;;;;;;;30.95;13.65;;;1.70;99.90;;;;;;5116632;27;20099;-74
2022/01/11 04:44:08;;;;;;;41.08;14.93;;;2.20;99.90;;;;;;5117675;27;20130;-74
2022/01/11 04:46:34;;;;;;;33.33;14.10;;;1.70;99.90;;;;;;5099829;27;20397;-75
2022/01/11 04:49:01;;;;;;;34.15;13.75;;;1.30;99.90;;;;;;5099535;27;20039;-75
2022/01/11 04:51:28;;;;;;;24.65;11.77;;;1.50;99.90;;;;;;5116605;27;20061;-74
2022/01/11 04:53:54;;;;;;;30.30;12.98;;;1.60;99.90;;;;;;5135730;27;20444;-74
2022/01/11 04:56:20;;;;;;;38.53;14.10;;;1.40;99.90;;;;;;5117044;27;20043;-75
2022/01/11 04:58:47;;;;;;;34.00;13.82;;;1.50;99.90;;;;;;5099386;27;20057;-74
2022/01/11 05:01:12;;;;;;;27.77;12.70;;;2.60;99.90;;;;;;5083666;27;20051;-75
2022/01/11 05:03:38;;;;;;;29.77;12.77;;;1.80;99.90;;;;;;5099076;27;20076;-75
2022/01/11 05:06:07;;;;;;;34.05;13.55;;;2.10;99.90;;;;;;5134727;27;20479;-75
2022/01/11 05:08:33;;;;;;;32.88;12.95;;;3.00;99.90;;;;;;5116238;27;20050;-75
2022/01/11 05:10:59;;;;;;;32.90;13.90;;;1.40;99.90;;;;;;5116494;27;20047;-75
2022/01/11 05:13:25;;;;;;;26.08;13.13;;;1.60;99.90;;;;;;5116182;28;20129;-74
2022/01/11 05:15:50;;;;;;;26.55;14.05;;;2.40;99.90;;;;;;5116322;28;20470;-75
2022/01/11 05:18:16;;;;;;;21.40;12.32;;;1.50;99.90;;;;;;5099159;27;20447;-75
2022/01/11 05:20:43;;;;;;;28.83;14.38;;;1.80;99.90;;;;;;5099761;28;20054;-75
2022/01/11 05:23:09;;;;;;;31.75;14.93;;;2.00;99.90;;;;;;5116399;28;20134;-75
2022/01/11 05:25:36;;;;;;;28.35;13.75;;;1.60;99.90;;;;;;5116321;28;20055;-75
2022/01/11 05:28:02;;;;;;;28.35;14.95;;;1.90;99.90;;;;;;5116359;28;20043;-74
2022/01/11 05:30:29;;;;;;;42.17;15.38;;;1.60;99.90;;;;;;5116113;28;20107;-74
2022/01/11 05:32:55;;;;;;;30.33;13.85;;;1.70;99.90;;;;;;5116043;28;20395;-74
2022/01/11 05:35:23;;;;;;;27.92;14.55;;;2.10;99.90;;;;;;5082509;28;20138;-74
2022/01/11 05:37:49;;;;;;;26.40;13.32;;;1.80;99.90;;;;;;5116147;28;20047;-75
2022/01/11 05:40:16;;;;;;;26.30;13.68;;;1.30;99.90;;;;;;5099513;28;20050;-74
2022/01/11 05:42:43;;;;;;;27.63;15.02;;;1.50;99.90;;;;;;5099253;28;20058;-75
2022/01/11 05:45:10;;;;;;;31.88;13.93;;;1.20;99.90;;;;;;5134820;28;20134;-75
2022/01/11 05:47:37;;;;;;;29.08;15.13;;;1.50;99.90;;;;;;5115859;28;20043;-75
2022/01/11 05:50:05;;;;;;;32.30;15.45;;;1.50;99.90;;;;;;5098847;28;20051;-74
2022/01/11 05:52:31;;;;;;;35.75;15.65;;;1.50;99.90;;;;;;5115903;28;20047;-74
2022/01/11 05:54:57;;;;;;;32.78;15.95;;;2.50;99.90;;;;;;5115865;28;20108;-75
2022/01/11 05:57:23;;;;;;;33.75;16.45;;;1.30;99.90;;;;;;5115652;28;20049;-75
2022/01/11 05:59:49;;;;;;;32.13;14.93;;;1.30;99.90;;;;;;5098994;28;20039;-74
2022/01/11 06:02:15;;;;;;;31.38;14.45;;;1.70;99.90;;;;;;5099032;28;20044;-75
2022/01/11 06:04:41;;;;;;;30.42;16.55;;;1.20;99.90;;;;;;5082121;28;20051;-74
2022/01/11 06:07:06;;;;;;;31.65;16.52;;;1.50;99.90;;;;;;5099549;28;20047;-74
2022/01/11 06:09:32;;;;;;;36.60;16.50;;;1.30;99.90;;;;;;5115698;28;20139;-75
2022/01/11 06:11:58;;;;;;;36.25;17.48;;;1.60;99.90;;;;;;5115748;28;20538;-74
2022/01/11 06:14:24;;;;;;;35.50;16.45;;;1.40;99.90;;;;;;5065457;27;20506;-75
2022/01/11 06:16:50;;;;;;;37.17;17.02;;;2.10;99.90;;;;;;5085712;27;20179;-75
2022/01/11 06:19:16;;;;;;;36.88;17.13;;;2.10;99.90;;;;;;5119446;27;20042;-74
2022/01/11 06:21:42;;;;;;;36.65;17.35;;;1.40;99.90;;;;;;5068694;27;20050;-74
2022/01/11 06:24:07;;;;;;;36.33;18.02;;;1.40;99.90;;;;;;5086015;27;20043;-74
2022/01/11 06:26:34;;;;;;;36.65;16.55;;;1.90;99.90;;;;;;5137385;27;20047;-74
2022/01/11 06:29:01;;;;;;;41.72;18.80;;;1.30;99.90;;;;;;5102395;27;20100;-76
2022/01/11 06:31:28;;;;;;;37.58;16.73;;;1.40;99.90;;;;;;5119357;27;20430;-75
2022/01/11 06:33:53;;;;;;;39.95;18.27;;;1.70;99.90;;;;;;5102620;27;20054;-75
2022/01/11 06:36:20;;;;;;;43.83;18.48;;;2.00;99.90;;;;;;5119890;27;20047;-75
2022/01/11 06:38:46;;;;;;;35.92;18.10;;;1.80;99.90;;;;;;5137274;27;20078;-76
2022/01/11 06:41:12;;;;;;;34.75;16.65;;;1.40;99.90;;;;;;5138154;27;20098;-75
2022/01/11 06:43:39;;;;;;;39.63;18.70;;;1.80;99.90;;;;;;5102495;27;20059;-76
2022/01/11 06:46:05;;;;;;;41.58;19.00;;;1.90;99.90;;;;;;5118877;27;20087;-76
2022/01/11 06:48:32;;;;;;;47.35;21.58;;;1.50;99.90;;;;;;5119902;27;20054;-75
2022/01/11 06:50:58;;;;;;;49.50;20.13;;;1.40;99.90;;;;;;5119936;27;20440;-76
2022/01/11 06:53:24;;;;;;;36.65;16.80;;;1.90;99.90;;;;;;5101940;27;20043;-75
2022/01/11 06:55:50;;;;;;;39.05;17.92;;;1.80;99.90;;;;;;5101455;27;20483;-75
2022/01/11 06:58:17;;;;;;;34.90;17.67;;;1.80;99.90;;;;;;5118772;27;20079;-76
2022/01/11 07:00:43;;;;;;;36.13;16.70;;;1.90;99.90;;;;;;5119224;27;20047;-75
2022/01/11 07:03:09;;;;;;;43.05;19.38;;;1.50;99.90;;;;;;5101784;27;20047;-76
2022/01/11 07:05:35;;;;;;;39.72;18.30;;;2.30;99.90;;;;;;5101765;27;20048;-75
2022/01/11 07:08:01;;;;;;;45.75;19.25;;;1.60;99.90;;;;;;5118394;27;20047;-75
2022/01/11 07:10:27;;;;;;;35.35;16.52;;;1.90;99.90;;;;;;5118532;27;20126;-75
2022/01/11 07:12:52;;;;;;;42.15;18.35;;;2.50;99.90;;;;;;5101571;27;20066;-76
2022/01/11 07:15:18;;;;;;;38.75;18.65;;;1.70;99.90;;;;;;5084755;27;20045;-75
2022/01/11 07:17:44;;;;;;;40.40;18.92;;;1.50;99.90;;;;;;5101459;27;20528;-76
2022/01/11 07:20:10;;;;;;;39.95;18.15;;;2.00;99.90;;;;;;5084656;27;20387;-76
2022/01/11 07:22:37;;;;;;;36.95;17.08;;;1.30;99.90;;;;;;5102278;27;20051;-76
2022/01/11 07:25:04;;;;;;;47.97;19.33;;;1.40;99.90;;;;;;5085410;27;20058;-76
2022/01/11 07:27:33;;;;;;;52.45;20.27;;;1.50;99.90;;;;;;5135468;27;20100;-76
2022/01/11 07:29:58;;;;;;;41.45;19.25;;;1.90;99.90;;;;;;5118257;27;20390;-76
2022/01/11 07:32:24;;;;;;;46.03;19.55;;;1.30;99.90;;;;;;5101317;27;20133;-76
2022/01/11 07:34:50;;;;;;;43.85;20.90;;;1.80;99.90;;;;;;5101203;27;20039;-76
2022/01/11 07:37:16;;;;;;;42.72;20.00;;;2.70;99.90;;;;;;5136813;27;20039;-76
2022/01/11 07:39:42;;;;;;;41.80;18.98;;;2.30;99.90;;;;;;5117958;27;20050;-76
2022/01/11 07:42:08;;;;;;;44.80;20.75;;;1.40;99.90;;;;;;5136174;27;20157;-75
2022/01/11 07:44:34;;;;;;;45.30;19.67;;;1.70;99.90;;;;;;5101188;27;20138;-75
2022/01/11 07:47:02;;;;;;;47.10;20.95;;;1.70;99.90;;;;;;5136451;27;20051;-76
2022/01/11 07:49:28;;;;;;;39.90;19.83;;;1.80;99.90;;;;;;5118189;27;20118;-76
2022/01/11 07:51:54;;;;;;;45.35;21.42;;;1.40;99.90;;;;;;5118070;27;20497;-75
2022/01/11 07:54:20;;;;;;;41.33;21.20;;;2.20;99.90;;;;;;5135942;27;20047;-76
2022/01/11 07:56:46;;;;;;;45.50;20.30;;;1.30;99.90;;;;;;5100489;27;20043;-76
2022/01/11 07:59:12;;;;;;;43.22;19.48;;;1.90;99.90;;;;;;5117622;27;20092;-75
2022/01/11 08:01:38;;;;;;;44.00;21.35;;;1.70;99.90;;;;;;5100752;27;20045;-75
2022/01/11 08:04:05;;;;;;;44.53;20.25;;;1.40;99.90;;;;;;5100500;27;20047;-75
2022/01/11 08:06:32;;;;;;;44.90;21.25;;;1.60;99.90;;;;;;5117833;27;20125;-75
2022/01/11 08:08:59;;;;;;;45.75;22.35;;;2.10;99.90;;;;;;5114048;28;20387;-75
2022/01/11 08:11:25;;;;;;;45.40;21.58;;;2.60;99.90;;;;;;5113771;28;20047;-76
2022/01/11 08:13:51;;;;;;;43.40;21.55;;;1.60;99.90;;;;;;5115906;28;20043;-76
2022/01/11 08:16:16;;;;;;;40.20;19.17;;;1.60;99.90;;;;;;5097265;28;20047;-76
2022/01/11 08:18:42;;;;;;;41.28;19.95;;;1.90;99.90;;;;;;5096749;28;20043;-76
2022/01/11 08:21:08;;;;;;;35.72;19.88;;;1.80;99.90;;;;;;5113904;28;20418;-76
2022/01/11 08:23:34;;;;;;;41.58;20.08;;;2.50;99.90;;;;;;5114262;28;20050;-76
2022/01/11 08:26:06;;;;;;;39.88;19.85;;;1.50;99.90;;;;;;5097227;28;20043;-75
2022/01/11 08:28:32;;;;;;;38.45;18.58;;;1.50;99.90;;;;;;5114715;28;20052;-76
2022/01/11 08:30:59;;;;;;;35.72;18.48;;;1.60;99.90;;;;;;5114872;28;20471;-76
2022/01/11 08:33:25;;;;;;;37.95;17.73;;;2.00;99.90;;;;;;5114150;28;20050;-76
2022/01/11 08:35:51;;;;;;;38.75;18.52;;;1.50;99.90;;;;;;5115352;28;20039;-79
2022/01/11 08:38:18;;;;;;;31.55;17.70;;;2.80;99.90;;;;;;5114548;28;20054;-79
2022/01/11 08:40:44;;;;;;;37.08;16.88;;;2.00;99.90;;;;;;5113744;28;20046;-74
2022/01/11 08:43:10;;;;;;;32.13;17.60;;;1.80;99.90;;;;;;5096731;28;20043;-76
2022/01/11 08:45:37;;;;;;;31.30;16.85;;;1.60;99.90;;;;;;5096737;28;20093;-77
2022/01/11 08:48:03;;;;;;;30.33;14.85;;;2.10;99.90;;;;;;5113298;28;20044;-78
2022/01/11 08:50:31;;;;;;;30.88;16.15;;;1.80;99.90;;;;;;5113829;28;20039;-78
2022/01/11 08:52:57;;;;;;;31.73;16.75;;;1.90;99.90;;;;;;5096613;28;20403;-77
2022/01/11 08:55:23;;;;;;;30.73;16.15;;;2.50;99.90;;;;;;5113518;28;20104;-75
2022/01/11 08:57:50;;;;;;;31.05;15.32;;;2.00;99.90;;;;;;5113329;28;20070;-75
2022/01/11 09:00:18;;;;;;;30.05;15.45;;;2.30;99.90;;;;;;5096359;28;20392;-76
2022/01/11 09:02:48;;;;;;;25.35;14.48;;;3.30;99.90;;;;;;5113413;28;20100;-75
2022/01/11 09:05:15;;;;;;;27.75;14.65;;;1.90;99.90;;;;;;5096706;28;20043;-76
2022/01/11 09:07:41;;;;;;;25.95;15.35;;;1.80;99.90;;;;;;5096549;28;20193;-77
2022/01/11 09:10:08;;;;;;;27.20;14.20;;;1.60;99.90;;;;;;5100447;27;20387;-77
2022/01/11 09:12:34;;;;;;;26.58;14.35;;;2.00;99.90;;;;;;5116148;27;20043;-74
2022/01/11 09:15:00;;;;;;;30.20;14.60;;;2.50;99.90;;;;;;5134601;27;20039;-74
2022/01/11 09:17:26;;;;;;;28.73;14.57;;;2.40;99.90;;;;;;5135058;27;20130;-73
2022/01/11 09:19:52;;;;;;;26.83;13.95;;;2.50;99.90;;;;;;5100281;28;20127;-77
2022/01/11 09:22:18;;;;;;;28.52;14.73;;;2.00;99.90;;;;;;5116587;28;20035;-76
2022/01/11 09:24:44;;;;;;;25.70;14.43;;;2.60;99.90;;;;;;5082685;28;20047;-75
2022/01/11 09:27:09;;;;;;;25.48;13.90;;;2.50;99.90;;;;;;5082715;28;20040;-74
2022/01/11 09:29:39;;;;;;;24.95;13.63;;;2.00;99.90;;;;;;5116410;28;20061;-74
2022/01/11 09:32:07;;;;;;;26.90;13.25;;;1.80;99.90;;;;;;5116393;28;20493;-73
2022/01/11 09:34:33;;;;;;;27.00;14.27;;;2.80;99.90;;;;;;5135395;28;20407;-73
2022/01/11 09:36:58;;;;;;;29.27;13.88;;;2.10;99.90;;;;;;5134506;28;20049;-73
2022/01/11 09:39:25;;;;;;;27.50;14.93;;;2.60;99.90;;;;;;5116113;28;20047;-73
2022/01/11 09:41:52;;;;;;;25.02;14.20;;;2.80;99.90;;;;;;5116055;28;20047;-73
2022/01/11 09:44:18;;;;;;;31.70;14.95;;;2.60;99.90;;;;;;5116069;28;20550;-73
2022/01/11 09:46:44;;;;;;;25.38;14.18;;;2.20;99.90;;;;;;5116280;28;20391;-73
2022/01/11 09:49:10;;;;;;;22.92;13.85;;;2.30;99.90;;;;;;5134393;27;20035;-73
2022/01/11 09:51:37;;;;;;;23.95;14.15;;;2.40;99.90;;;;;;5139054;27;20073;-74
2022/01/11 09:54:08;;;;;;;28.85;14.70;;;2.20;99.90;;;;;;5103372;27;20398;-73
2022/01/11 09:56:37;;;;;;;27.65;13.57;;;1.80;99.90;;;;;;5120321;27;20122;-73
2022/01/11 09:59:07;;;;;;;24.52;12.95;;;2.80;99.90;;;;;;5103269;27;20039;-74
2022/01/11 10:01:35;;;;;;;25.63;13.32;;;2.00;99.90;;;;;;5138299;27;20099;-73
2022/01/11 10:04:04;;;;;;;26.05;14.35;;;2.00;99.90;;;;;;5121042;27;20054;-74
2022/01/11 10:06:32;;;;;;;25.42;14.65;;;2.00;99.90;;;;;;5120303;27;20050;-74
2022/01/11 10:09:10;;;;;;;23.48;14.20;;;2.30;99.90;;;;;;5102908;27;20521;-74
2022/01/11 10:11:39;;;;;;;26.55;13.27;;;2.10;99.90;;;;;;5138179;27;20086;-77
2022/01/11 10:14:16;;;;;;;22.00;13.38;;;2.80;99.90;;;;;;5102821;27;20039;-77
2022/01/11 10:16:42;;;;;;;23.73;14.25;;;2.20;99.90;;;;;;5102827;27;20147;-77
2022/01/11 10:19:22;;;;;;;24.10;13.50;;;3.00;99.90;;;;;;5118780;27;20042;-76
2022/01/11 10:21:50;;;;;;;22.45;12.90;;;1.40;99.90;;;;;;5137112;27;20084;-75
2022/01/11 10:24:36;;;;;;;27.88;13.30;;;2.70;99.90;;;;;;5085577;27;20061;-76
2022/01/11 10:27:21;;;;;;;23.83;13.23;;;1.80;99.90;;;;;;5137308;27;20074;-75
2022/01/11 10:29:53;;;;;;;23.52;13.30;;;3.20;99.90;;;;;;5137850;27;20043;-75
2022/01/11 10:32:30;;;;;;;25.27;12.73;;;2.30;99.90;;;;;;5137775;27;20364;-75
2022/01/11 10:35:14;;;;;;;26.70;14.10;;;2.10;99.90;;;;;;5102250;27;20130;-75
2022/01/11 10:37:41;;;;;;;23.00;12.35;;;2.20;99.90;;;;;;5136595;27;20487;-75
2022/01/11 10:40:15;;;;;;;22.20;13.20;;;2.70;99.90;;;;;;5118002;27;20042;-75
2022/01/11 10:42:46;;;;;;;18.58;12.02;;;2.60;99.90;;;;;;5118254;27;20080;-75
2022/01/11 10:45:22;;;;;;;22.05;12.77;;;3.10;99.90;;;;;;5118729;27;20562;-75
2022/01/11 10:47:57;;;;;;;22.52;12.18;;;2.30;99.90;;;;;;5101517;27;20138;-75
2022/01/11 10:50:34;;;;;;;20.35;12.13;;;2.40;99.90;;;;;;5118420;27;20039;-75
2022/01/11 10:53:02;;;;;;;22.05;12.35;;;3.00;99.90;;;;;;5101865;27;20050;-75
2022/01/11 10:55:30;;;;;;;19.50;11.75;;;2.60;99.90;;;;;;5136784;27;20047;-75
2022/01/11 10:58:03;;;;;;;20.60;12.20;;;3.00;99.90;;;;;;5118815;27;20039;-75
2022/01/11 11:00:30;;;;;;;20.42;11.82;;;2.30;99.90;;;;;;5136291;27;20082;-75
2022/01/11 11:02:58;;;;;;;21.13;12.18;;;2.30;99.90;;;;;;5117057;27;20062;-75
2022/01/11 11:05:30;;;;;;;18.10;10.15;;;2.70;99.90;;;;;;5118060;27;20057;-75
2022/01/11 11:08:02;;;;;;;21.35;11.02;;;2.60;99.90;;;;;;5136347;27;20039;-75
2022/01/11 11:10:34;;;;;;;19.07;10.17;;;2.40;99.90;;;;;;5135893;27;20047;-75
2022/01/11 11:13:02;;;;;;;18.67;11.45;;;2.70;99.90;;;;;;5137085;27;20050;-74
2022/01/11 11:15:32;;;;;;;18.80;10.45;;;3.00;99.90;;;;;;5118974;27;20039;-76
2022/01/11 11:17:59;;;;;;;18.23;10.88;;;2.40;99.90;;;;;;5136617;27;20047;-76
2022/01/11 11:20:25;;;;;;;20.98;10.52;;;2.70;99.90;;;;;;5101690;27;20595;-75
2022/01/11 11:22:51;;;;;;;21.75;11.15;;;2.50;99.90;;;;;;5119425;27;20056;-75
2022/01/11 11:25:17;;;;;;;14.40;9.23;;;3.00;99.90;;;;;;5119394;27;20061;-74
2022/01/11 11:27:43;;;;;;;20.08;9.88;;;2.80;99.90;;;;;;5102343;27;20040;-76
2022/01/11 11:30:09;;;;;;;19.35;10.73;;;2.50;99.90;;;;;;5100902;27;20106;-75
2022/01/11 11:32:35;;;;;;;17.67;9.55;;;2.80;99.90;;;;;;5118384;27;20471;-76
2022/01/11 11:35:02;;;;;;;14.05;9.00;;;3.00;99.90;;;;;;5101095;27;20072;-76
2022/01/11 11:37:38;;;;;;;17.38;9.82;;;3.70;99.90;;;;;;5118824;27;20059;-75
2022/01/11 11:40:08;;;;;;;18.20;10.15;;;3.30;99.90;;;;;;5137506;27;20126;-75
2022/01/11 11:42:37;;;;;;;15.20;9.27;;;2.80;99.90;;;;;;5137483;27;20035;-76
2022/01/11 11:45:15;;;;;;;16.88;9.57;;;3.00;99.90;;;;;;5118635;27;20063;-76
2022/01/11 11:47:41;;;;;;;18.30;8.88;;;3.40;99.90;;;;;;5136218;27;20043;-75
2022/01/11 11:50:14;;;;;;;17.10;8.23;;;3.30;99.90;;;;;;5118133;27;20095;-76
2022/01/11 11:52:45;;;;;;;15.73;8.40;;;2.90;99.90;;;;;;5117838;27;20100;-75
2022/01/11 11:55:19;;;;;;;15.93;9.07;;;3.30;99.90;;;;;;5136082;27;20043;-75
2022/01/11 11:57:47;;;;;;;14.43;8.20;;;3.30;99.90;;;;;;5118708;27;20043;-76
2022/01/11 12:00:23;;;;;;;13.77;8.35;;;4.00;99.90;;;;;;5118610;27;20047;-74
2022/01/11 12:02:52;;;;;;;14.63;8.02;;;3.60;99.90;;;;;;5117994;27;20481;-76
2022/01/11 12:05:38;;;;;;;15.35;8.10;;;3.40;99.90;;;;;;5117750;27;20058;-74
2022/01/11 12:08:31;;;;;;;17.42;8.43;;;3.80;99.90;;;;;;5117482;27;20082;-75
2022/01/11 12:11:18;;;;;;;13.30;7.43;;;3.40;99.90;;;;;;5117350;27;20043;-75
2022/01/11 12:13:53;;;;;;;13.77;8.70;;;3.70;99.90;;;;;;5119585;27;20281;-76
2022/01/11 12:16:30;;;;;;;14.85;7.65;;;3.50;99.90;;;;;;5118481;27;20413;-78
2022/01/11 12:18:56;;;;;;;14.70;7.32;;;3.60;99.90;;;;;;5118017;27;20050;-77
2022/01/11 12:21:24;;;;;;;13.20;6.88;;;4.40;99.90;;;;;;5100779;27;20095;-76
2022/01/11 12:23:53;;;;;;;14.27;7.32;;;3.90;99.90;;;;;;5101517;27;20043;-75
2022/01/11 12:26:25;;;;;;;12.45;7.10;;;3.80;99.90;;;;;;5117144;27;20475;-79
2022/01/11 12:29:10;;;;;;;12.85;7.72;;;4.10;99.90;;;;;;5118180;27;20446;-78
2022/01/11 12:31:45;;;;;;;14.38;7.53;;;3.80;99.90;;;;;;5118168;27;20047;-77
2022/01/11 12:34:13;;;;;;;13.60;7.07;;;3.90;99.90;;;;;;5117565;27;20125;-79
2022/01/11 12:36:59;;;;;;;13.43;6.80;;;5.10;99.90;;;;;;5118066;27;20055;-78
2022/01/11 12:39:27;;;;;;;15.20;6.95;;;4.60;99.90;;;;;;5099612;27;20083;-80
2022/01/11 12:41:55;;;;;;;11.27;6.57;;;4.50;99.90;;;;;;5116859;27;20043;-79
2022/01/11 12:47:07;;;;;;;15.95;9.10;;;4.60;99.90;;;;;;5117002;27;20043;-77